Time;durP1;ratioP1;P1;durP2;ratioP2;P2;SDS_P1;SDS_P2;PMS_P1;PMS_P2;Temp;Humidity;BMP_temperature;BMP_pressure;BME280_temperature;BME280_humidity;BME280_pressure;Samples;Min_cycle;Max_cycle;Signal;HPM_P1;HPM_P2
2022/04/09 00:00:39;;;;;;;;;;;23.70;47.30;;;;;;1581287;75;1935;-63
2022/04/09 00:02:41;;;;;;;;;;;23.70;47.30;;;;;;1571584;75;794;-62
2022/04/09 00:04:43;;;;;;;;;;;23.60;47.20;;;;;;1550863;77;1206;-61
2022/04/09 00:06:44;;;;;;;;;;;23.70;47.30;;;;;;1550760;77;745;-60
2022/04/09 00:08:46;;;;;;;;;;;23.70;47.30;;;;;;1550884;77;719;-62
2022/04/09 00:10:48;;;;;;;;;;;23.60;47.30;;;;;;1550827;75;738;-61
2022/04/09 00:12:50;;;;;;;;;;;23.70;47.30;;;;;;1550882;75;728;-62
2022/04/09 00:14:52;;;;;;;;;;;23.60;47.30;;;;;;1581161;75;1031;-62
2022/04/09 00:16:54;;;;;;;;;;;23.70;47.30;;;;;;1581145;75;720;-62
2022/04/09 00:18:56;;;;;;;;;;;23.60;47.20;;;;;;1578885;75;768;-61
2022/04/09 00:20:58;;;;;;;;;;;23.70;47.30;;;;;;1550857;77;1943;-61
2022/04/09 00:22:59;;;;;;;;;;;23.70;47.30;;;;;;1555069;75;804;-61
2022/04/09 00:25:01;;;;;;;;;;;23.70;47.30;;;;;;1563540;75;1065;-61
2022/04/09 00:27:03;;;;;;;;;;;23.60;47.10;;;;;;1581199;75;698;-61
2022/04/09 00:29:06;;;;;;;;;;;23.70;47.30;;;;;;1581111;75;775;-62
2022/04/09 00:31:08;;;;;;;;;;;23.70;47.20;;;;;;1581130;75;714;-62
2022/04/09 00:33:10;;;;;;;;;;;23.60;47.10;;;;;;1572038;75;1093;-64
2022/04/09 00:35:12;;;;;;;;;;;23.70;47.20;;;;;;1525199;78;789;-62
2022/04/09 00:37:14;;;;;;;;;;;23.60;47.10;;;;;;1525285;77;620;-62
2022/04/09 00:39:15;;;;;;;;;;;23.60;47.10;;;;;;1525188;78;628;-62
2022/04/09 00:41:17;;;;;;;;;;;23.60;47.10;;;;;;1526484;77;1954;-62
2022/04/09 00:43:39;;;;;;;;;;;23.60;47.10;;;;;;1525156;78;1120;-60
2022/04/09 00:45:40;;;;;;;;;;;23.60;47.10;;;;;;1507956;78;516;-64
2022/04/09 00:47:42;;;;;;;;;;;23.60;47.10;;;;;;1557774;76;687;-65
2022/04/09 00:49:44;;;;;;;;;;;23.60;47.00;;;;;;1565281;76;695;-64
2022/04/09 00:51:46;;;;;;;;;;;23.60;47.00;;;;;;1562953;76;793;-66
2022/04/09 00:53:48;;;;;;;;;;;23.60;47.00;;;;;;1542962;77;1147;-65
2022/04/09 00:58:12;;;;;;;;;;;23.60;47.10;;;;;;1522142;78;1639;-63
2022/04/09 01:00:14;;;;;;;;;;;23.60;47.10;;;;;;1521409;78;1927;-64
2022/04/09 01:02:16;;;;;;;;;;;23.70;47.10;;;;;;1522131;78;816;-64
2022/04/09 01:04:18;;;;;;;;;;;23.60;47.10;;;;;;1521166;77;1075;-65
2022/04/09 01:06:20;;;;;;;;;;;23.60;47.10;;;;;;1531179;77;760;-64
2022/04/09 01:08:22;;;;;;;;;;;23.60;47.10;;;;;;1543625;77;712;-64
2022/04/09 01:10:24;;;;;;;;;;;23.60;47.10;;;;;;1543439;77;628;-65
2022/04/09 01:12:26;;;;;;;;;;;23.60;47.00;;;;;;1543309;77;639;-66
2022/04/09 01:14:28;;;;;;;;;;;23.60;47.00;;;;;;1522560;77;1109;-66
2022/04/09 01:16:30;;;;;;;;;;;23.70;47.20;;;;;;1530662;77;772;-66
2022/04/09 01:18:33;;;;;;;;;;;23.60;47.00;;;;;;1538792;77;786;-64
2022/04/09 01:20:35;;;;;;;;;;;23.60;47.10;;;;;;1538011;77;1918;-66
2022/04/09 01:22:37;;;;;;;;;;;23.60;47.10;;;;;;1521660;78;761;-64
2022/04/09 01:24:39;;;;;;;;;;;23.70;47.20;;;;;;1521300;77;1103;-64
2022/04/09 01:26:40;;;;;;;;;;;23.60;47.10;;;;;;1522211;78;736;-64
2022/04/09 01:28:43;;;;;;;;;;;23.60;47.10;;;;;;1522304;78;814;-67
2022/04/09 01:30:45;;;;;;;;;;;23.60;47.10;;;;;;1522047;78;674;-64
2022/04/09 01:32:47;;;;;;;;;;;23.70;47.20;;;;;;1522179;78;800;-62
2022/04/09 01:34:49;;;;;;;;;;;23.60;47.10;;;;;;1521285;78;1124;-67
2022/04/09 01:36:51;;;;;;;;;;;23.60;47.10;;;;;;1522073;78;764;-64
2022/04/09 01:38:53;;;;;;;;;;;23.70;47.30;;;;;;1522208;78;767;-63
2022/04/09 01:40:54;;;;;;;;;;;23.60;47.10;;;;;;1522086;78;1936;-65
2022/04/09 01:42:56;;;;;;;;;;;23.60;47.10;;;;;;1522111;78;851;-64
2022/04/09 01:44:58;;;;;;;;;;;23.60;47.10;;;;;;1522672;76;1067;-63
2022/04/09 01:47:00;;;;;;;;;;;23.60;47.10;;;;;;1541613;77;694;-64
2022/04/09 01:49:04;;;;;;;;;;;23.70;47.20;;;;;;1527371;76;774;-64
2022/04/09 01:51:06;;;;;;;;;;;23.60;47.10;;;;;;1519196;77;809;-64
2022/04/09 01:53:07;;;;;;;;;;;23.60;47.00;;;;;;1524347;76;736;-64
2022/04/09 01:55:09;;;;;;;;;;;23.70;47.20;;;;;;1520073;77;1118;-64
2022/04/09 01:57:11;;;;;;;;;;;23.60;47.00;;;;;;1518364;78;752;-64
2022/04/09 01:59:13;;;;;;;;;;;23.60;47.10;;;;;;1516860;78;714;-64
2022/04/09 02:01:18;;;;;;;;;;;23.60;47.00;;;;;;1516782;78;1929;-64
2022/04/09 02:03:20;;;;;;;;;;;23.60;47.00;;;;;;1519317;76;709;-64
2022/04/09 02:05:21;;;;;;;;;;;23.70;47.10;;;;;;1539474;75;1117;-63
2022/04/09 02:07:24;;;;;;;;;;;23.70;47.10;;;;;;1527948;76;829;-64
2022/04/09 02:09:26;;;;;;;;;;;23.60;47.00;;;;;;1551177;76;764;-63
2022/04/09 02:11:28;;;;;;;;;;;23.60;47.10;;;;;;1527439;76;781;-63
2022/04/09 02:13:30;;;;;;;;;;;23.70;47.10;;;;;;1529281;75;1106;-64
2022/04/09 02:15:31;;;;;;;;;;;23.60;47.10;;;;;;1538651;76;714;-64
2022/04/09 02:17:35;;;;;;;;;;;23.70;47.20;;;;;;1549753;76;804;-65
2022/04/09 02:19:38;;;;;;;;;;;23.60;47.10;;;;;;1531317;76;699;-64
2022/04/09 02:21:40;;;;;;;;;;;23.60;47.10;;;;;;1523407;76;1908;-65
2022/04/09 02:23:42;;;;;;;;;;;23.70;47.20;;;;;;1551181;75;1136;-66
2022/04/09 02:25:43;;;;;;;;;;;23.60;47.10;;;;;;1530275;76;766;-63
2022/04/09 02:27:45;;;;;;;;;;;23.60;47.10;;;;;;1522041;77;790;-64
2022/04/09 02:29:47;;;;;;;;;;;23.60;47.10;;;;;;1521707;78;696;-64
2022/04/09 02:31:49;;;;;;;;;;;23.70;47.30;;;;;;1521947;78;785;-64
2022/04/09 02:33:51;;;;;;;;;;;23.60;47.10;;;;;;1521107;77;1130;-63
2022/04/09 02:35:53;;;;;;;;;;;23.70;47.20;;;;;;1522061;78;762;-64
2022/04/09 02:37:56;;;;;;;;;;;23.70;47.20;;;;;;1522155;78;619;-66
2022/04/09 02:39:58;;;;;;;;;;;23.70;47.10;;;;;;1541671;76;775;-64
2022/04/09 02:42:00;;;;;;;;;;;23.70;47.10;;;;;;1526781;76;1935;-65
2022/04/09 02:44:02;;;;;;;;;;;23.70;47.10;;;;;;1524963;77;1149;-64
2022/04/09 02:46:04;;;;;;;;;;;23.80;47.10;;;;;;1547540;76;772;-63
2022/04/09 02:48:06;;;;;;;;;;;23.80;47.10;;;;;;1551263;76;773;-62
2022/04/09 02:50:08;;;;;;;;;;;23.70;47.10;;;;;;1547600;76;722;-63
2022/04/09 02:52:10;;;;;;;;;;;23.70;47.00;;;;;;1522027;78;645;-63
2022/04/09 02:54:16;;;;;;;;;;;23.80;47.00;;;;;;1521983;77;1146;-65
2022/04/09 02:56:15;;;;;;;;;;;23.80;47.00;;;;;;1520461;78;1564;-64
2022/04/09 02:58:17;;;;;;;;;;;23.80;46.90;;;;;;1521965;78;783;-64
2022/04/09 03:00:19;;;;;;;;;;;23.80;46.90;;;;;;1521922;78;1921;-64
2022/04/09 03:02:21;;;;;;;;;;;23.70;46.90;;;;;;1522094;78;730;-66
2022/04/09 03:04:23;;;;;;;;;;;23.80;46.90;;;;;;1520972;77;1105;-65
2022/04/09 03:06:25;;;;;;;;;;;23.80;46.90;;;;;;1531799;77;727;-61
2022/04/09 03:08:26;;;;;;;;;;;23.70;46.80;;;;;;1543491;77;805;-66
2022/04/09 03:10:28;;;;;;;;;;;23.70;46.90;;;;;;1543504;77;737;-64
2022/04/09 03:12:30;;;;;;;;;;;23.80;46.90;;;;;;1542344;77;895;-65
2022/04/09 03:14:32;;;;;;;;;;;23.70;46.90;;;;;;1532794;76;1125;-62
2022/04/09 03:16:34;;;;;;;;;;;23.70;46.80;;;;;;1550694;76;723;-61
2022/04/09 03:18:36;;;;;;;;;;;23.80;46.90;;;;;;1551286;76;708;-64
2022/04/09 03:20:38;;;;;;;;;;;23.70;46.80;;;;;;1522385;76;1936;-64
2022/04/09 03:22:46;;;;;;;;;;;23.80;46.80;;;;;;1521021;78;657;-64
2022/04/09 03:24:48;;;;;;;;;;;23.90;46.90;;;;;;1520977;77;1110;-65
2022/04/09 03:26:50;;;;;;;;;;;23.80;46.80;;;;;;1522011;78;735;-66
2022/04/09 03:28:51;;;;;;;;;;;23.80;46.70;;;;;;1522035;78;608;-63
2022/04/09 03:30:53;;;;;;;;;;;23.70;46.80;;;;;;1521991;78;798;-63
2022/04/09 03:32:55;;;;;;;;;;;23.80;46.80;;;;;;1521591;78;747;-65
2022/04/09 03:34:57;;;;;;;;;;;23.70;46.80;;;;;;1521980;77;1166;-66
2022/04/09 03:36:59;;;;;;;;;;;23.80;46.80;;;;;;1521919;78;786;-64
2022/04/09 03:39:01;;;;;;;;;;;23.70;46.80;;;;;;1522067;78;737;-64
2022/04/09 03:41:03;;;;;;;;;;;23.70;46.80;;;;;;1521998;78;1941;-66
2022/04/09 03:43:05;;;;;;;;;;;23.80;46.80;;;;;;1520911;78;805;-66
2022/04/09 03:45:07;;;;;;;;;;;23.80;46.70;;;;;;1537413;77;1050;-65
2022/04/09 03:47:09;;;;;;;;;;;23.80;46.70;;;;;;1543416;77;785;-64
2022/04/09 03:49:11;;;;;;;;;;;23.70;46.70;;;;;;1543519;77;797;-64
2022/04/09 03:51:13;;;;;;;;;;;23.80;46.70;;;;;;1527393;77;770;-65
2022/04/09 03:53:20;;;;;;;;;;;23.80;46.60;;;;;;1521892;78;734;-64
2022/04/09 03:55:19;;;;;;;;;;;23.70;46.70;;;;;;1519482;77;1282;-63
2022/04/09 03:57:20;;;;;;;;;;;23.70;46.70;;;;;;1522038;78;721;-62
2022/04/09 03:59:22;;;;;;;;;;;23.70;46.70;;;;;;1521973;78;754;-61
2022/04/09 04:01:24;;;;;;;;;;;23.70;46.70;;;;;;1521970;78;1940;-62
2022/04/09 04:03:27;;;;;;;;;;;23.70;46.70;;;;;;1520762;78;657;-62
2022/04/09 04:05:29;;;;;;;;;;;23.70;46.80;;;;;;1521978;77;796;-60
2022/04/09 04:07:31;;;;;;;;;;;23.70;46.80;;;;;;1543532;77;788;-61
2022/04/09 04:09:33;;;;;;;;;;;23.80;46.80;;;;;;1543399;77;748;-62
2022/04/09 04:11:35;;;;;;;;;;;23.70;46.70;;;;;;1529573;77;709;-62
2022/04/09 04:13:38;;;;;;;;;;;23.70;46.70;;;;;;1521850;76;1146;-64
2022/04/09 04:15:42;;;;;;;;;;;23.70;46.70;;;;;;1531027;76;686;-64
2022/04/09 04:17:44;;;;;;;;;;;23.70;46.70;;;;;;1522997;76;1685;-63
2022/04/09 04:19:45;;;;;;;;;;;23.70;46.70;;;;;;1520468;77;806;-63
2022/04/09 04:21:47;;;;;;;;;;;23.70;46.80;;;;;;1521719;78;2239;-64
2022/04/09 04:23:49;;;;;;;;;;;23.70;46.70;;;;;;1521518;77;1134;-65
2022/04/09 04:25:51;;;;;;;;;;;23.70;46.80;;;;;;1520787;77;755;-63
2022/04/09 04:27:54;;;;;;;;;;;23.70;46.80;;;;;;1521779;77;768;-62
2022/04/09 04:29:59;;;;;;;;;;;23.70;46.80;;;;;;1521539;77;732;-65
2022/04/09 04:32:01;;;;;;;;;;;23.70;46.70;;;;;;1521776;77;806;-61
2022/04/09 04:34:03;;;;;;;;;;;23.70;46.80;;;;;;1520873;77;1168;-60
2022/04/09 04:36:05;;;;;;;;;;;23.70;46.80;;;;;;1520778;77;825;-65
2022/04/09 04:38:07;;;;;;;;;;;23.70;46.70;;;;;;1521541;77;754;-67
2022/04/09 04:40:09;;;;;;;;;;;23.80;46.60;;;;;;1521712;77;758;-65
2022/04/09 04:42:11;;;;;;;;;;;23.70;46.60;;;;;;1520576;77;1932;-66
2022/04/09 04:44:13;;;;;;;;;;;23.80;46.70;;;;;;1521459;77;1122;-67
2022/04/09 04:46:15;;;;;;;;;;;23.70;46.80;;;;;;1521664;77;771;-68
2022/04/09 04:48:16;;;;;;;;;;;23.80;46.60;;;;;;1521664;77;700;-68
2022/04/09 04:50:19;;;;;;;;;;;23.80;46.70;;;;;;1521488;77;646;-67
2022/04/09 04:52:21;;;;;;;;;;;23.70;46.70;;;;;;1521143;77;709;-68
2022/04/09 04:54:23;;;;;;;;;;;23.70;46.70;;;;;;1521282;77;1119;-70
2022/04/09 04:56:25;;;;;;;;;;;23.70;46.70;;;;;;1521448;77;690;-68
2022/04/09 04:58:27;;;;;;;;;;;23.70;46.60;;;;;;1521623;77;888;-63
2022/04/09 05:00:28;;;;;;;;;;;23.70;46.60;;;;;;1521361;77;790;-61
2022/04/09 05:02:30;;;;;;;;;;;23.70;46.60;;;;;;1520353;77;1936;-60
2022/04/09 05:04:32;;;;;;;;;;;23.70;46.80;;;;;;1520844;77;1124;-59
2022/04/09 05:06:34;;;;;;;;;;;23.70;46.60;;;;;;1525527;77;759;-60
2022/04/09 05:08:38;;;;;;;;;;;23.80;46.50;;;;;;1521557;77;741;-64
2022/04/09 05:10:40;;;;;;;;;;;23.80;46.30;;;;;;1521694;78;1521;-60
2022/04/09 05:12:42;;;;;;;;;;;23.90;46.20;;;;;;1521423;78;699;-63
2022/04/09 05:14:44;;;;;;;;;;;23.90;46.00;;;;;;1534856;76;1145;-61
2022/04/09 05:16:45;;;;;;;;;;;23.80;46.10;;;;;;1551024;76;821;-61
2022/04/09 05:18:47;;;;;;;;;;;23.80;46.10;;;;;;1549386;76;782;-61
2022/04/09 05:20:50;;;;;;;;;;;23.80;46.10;;;;;;1516857;78;778;-63
2022/04/09 05:22:52;;;;;;;;;;;23.70;46.10;;;;;;1520440;78;1949;-65
2022/04/09 05:24:54;;;;;;;;;;;23.80;46.10;;;;;;1520874;77;1130;-65
2022/04/09 05:26:56;;;;;;;;;;;23.60;45.80;;;;;;1521871;78;780;-64
2022/04/09 05:28:58;;;;;;;;;;;23.70;45.90;;;;;;1521958;78;696;-63
2022/04/09 05:31:00;;;;;;;;;;;23.70;45.80;;;;;;1520211;77;706;-63
2022/04/09 05:33:02;;;;;;;;;;;23.80;45.70;;;;;;1521219;78;683;-64
2022/04/09 05:35:04;;;;;;;;;;;23.70;45.50;;;;;;1521589;77;1149;-64
2022/04/09 05:37:06;;;;;;;;;;;23.70;45.40;;;;;;1519390;77;762;-64
2022/04/09 05:39:11;;;;;;;;;;;23.90;45.40;;;;;;1525551;77;610;-63
2022/04/09 05:41:12;;;;;;;;;;;23.80;45.20;;;;;;1528334;77;1104;-63
2022/04/09 05:43:13;;;;;;;;;;;23.80;45.20;;;;;;1520827;77;790;-64
2022/04/09 05:45:15;;;;;;;;;;;23.90;45.10;;;;;;1522463;77;1101;-63
2022/04/09 05:47:18;;;;;;;;;;;23.90;45.00;;;;;;1522379;77;764;-63
2022/04/09 05:49:20;;;;;;;;;;;23.90;44.90;;;;;;1522504;77;735;-62
2022/04/09 05:51:24;;;;;;;;;;;23.90;44.90;;;;;;1521846;77;791;-65
2022/04/09 05:53:26;;;;;;;;;;;23.90;45.00;;;;;;1522372;77;853;-63
2022/04/09 05:55:28;;;;;;;;;;;23.90;44.90;;;;;;1519184;77;711;-64
2022/04/09 05:57:33;;;;;;;;;;;23.80;45.00;;;;;;1522503;77;708;-63
2022/04/09 05:59:35;;;;;;;;;;;23.80;45.00;;;;;;1522398;77;706;-65
2022/04/09 06:01:37;;;;;;;;;;;23.90;45.00;;;;;;1530276;77;1932;-65
2022/04/09 06:03:39;;;;;;;;;;;23.90;45.00;;;;;;1521984;77;1151;-65
2022/04/09 06:05:41;;;;;;;;;;;23.90;44.90;;;;;;1523880;77;782;-65
2022/04/09 06:07:43;;;;;;;;;;;23.80;45.00;;;;;;1522207;77;664;-65
2022/04/09 06:09:46;;;;;;;;;;;23.80;45.00;;;;;;1522187;77;682;-65
2022/04/09 06:11:48;;;;;;;;;;;23.70;45.00;;;;;;1512351;77;653;-65
2022/04/09 06:13:50;;;;;;;;;;;23.90;44.90;;;;;;1525159;77;1244;-64
2022/04/09 06:15:52;;;;;;;;;;;23.80;44.90;;;;;;1522335;77;767;-65
2022/04/09 06:17:54;;;;;;;;;;;23.90;44.90;;;;;;1521467;77;803;-67
2022/04/09 06:19:56;;;;;;;;;;;23.80;44.70;;;;;;1521455;77;773;-66
2022/04/09 06:21:58;;;;;;;;;;;23.90;44.70;;;;;;1516582;77;1946;-65
2022/04/09 06:24:01;;;;;;;;;;;23.90;44.70;;;;;;1524097;77;1111;-64
2022/04/09 06:26:03;;;;;;;;;;;23.90;44.70;;;;;;1520098;77;3200;-64
2022/04/09 06:28:05;;;;;;;;;;;23.70;44.80;;;;;;1522382;77;718;-65
2022/04/09 06:30:07;;;;;;;;;;;23.70;44.80;;;;;;1522351;77;664;-64
2022/04/09 06:32:09;;;;;;;;;;;23.70;45.00;;;;;;1527478;77;669;-64
2022/04/09 06:34:11;;;;;;;;;;;23.70;45.00;;;;;;1521742;77;1180;-65
2022/04/09 06:36:13;;;;;;;;;;;23.60;45.00;;;;;;1522606;77;681;-64
2022/04/09 06:38:15;;;;;;;;;;;23.70;45.20;;;;;;1522491;77;725;-65
2022/04/09 06:40:17;;;;;;;;;;;23.60;45.00;;;;;;1522729;77;754;-65
2022/04/09 06:42:19;;;;;;;;;;;23.60;45.10;;;;;;1521674;77;1905;-65
2022/04/09 06:44:21;;;;;;;;;;;23.60;45.20;;;;;;1542939;71;2187;-61
2022/04/09 06:46:23;;;;;;;;;;;23.60;45.20;;;;;;1579983;74;732;-61
2022/04/09 06:48:25;;;;;;;;;;;23.50;45.20;;;;;;1579493;74;721;-61
2022/04/09 06:50:27;;;;;;;;;;;23.60;45.20;;;;;;1579757;74;772;-60
2022/04/09 06:52:28;;;;;;;;;;;23.50;45.20;;;;;;1544107;75;1221;-61
2022/04/09 06:54:30;;;;;;;;;;;23.50;45.30;;;;;;1578965;74;1192;-62
2022/04/09 06:56:32;;;;;;;;;;;23.50;45.40;;;;;;1583904;74;802;-62
2022/04/09 06:58:34;;;;;;;;;;;23.50;45.40;;;;;;1593002;74;721;-61
2022/04/09 07:00:37;;;;;;;;;;;23.50;45.40;;;;;;1600514;74;775;-64
2022/04/09 07:02:39;;;;;;;;;;;23.60;45.40;;;;;;1608999;74;1899;-61
2022/04/09 07:04:41;;;;;;;;;;;23.60;45.20;;;;;;1581841;74;1177;-63
2022/04/09 07:06:45;;;;;;;;;;;23.60;45.00;;;;;;1579319;74;722;-62
2022/04/09 07:08:47;;;;;;;;;;;23.70;45.00;;;;;;1579258;74;1586;-62
2022/04/09 07:10:49;;;;;;;;;;;23.70;44.80;;;;;;1579479;74;717;-61
2022/04/09 07:12:51;;;;;;;;;;;23.80;44.80;;;;;;1578908;74;618;-62
2022/04/09 07:14:53;;;;;;;;;;;23.60;44.70;;;;;;1579382;74;1134;-63
2022/04/09 07:16:58;;;;;;;;;;;23.70;44.70;;;;;;1579047;74;766;-61
2022/04/09 07:18:58;;;;;;;;;;;23.60;44.70;;;;;;1582379;74;1644;-62
2022/04/09 07:21:01;;;;;;;;;;;23.70;44.90;;;;;;1580253;74;774;-62
2022/04/09 07:23:04;;;;;;;;;;;23.60;44.70;;;;;;1579601;74;1900;-60
2022/04/09 07:25:06;;;;;;;;;;;23.50;44.80;;;;;;1585204;74;1116;-63
2022/04/09 07:27:08;;;;;;;;;;;23.50;44.90;;;;;;1579233;74;665;-62
2022/04/09 07:29:11;;;;;;;;;;;23.50;44.90;;;;;;1579388;74;760;-62
2022/04/09 07:31:12;;;;;;;;;;;23.50;45.00;;;;;;1579211;74;800;-62
2022/04/09 07:33:14;;;;;;;;;;;23.50;45.00;;;;;;1581781;74;834;-62
2022/04/09 07:35:16;;;;;;;;;;;23.50;45.10;;;;;;1585631;74;1181;-62
2022/04/09 07:37:19;;;;;;;;;;;23.40;45.00;;;;;;1579406;74;771;-63
2022/04/09 07:39:21;;;;;;;;;;;23.40;45.10;;;;;;1578662;74;772;-62
2022/04/09 07:41:23;;;;;;;;;;;23.30;45.40;;;;;;1569928;74;728;-63
2022/04/09 07:43:24;;;;;;;;;;;23.40;45.10;;;;;;1579169;74;1939;-63
2022/04/09 07:45:27;;;;;;;;;;;23.40;45.00;;;;;;1579517;74;1138;-62
2022/04/09 07:47:30;;;;;;;;;;;23.40;45.00;;;;;;1577059;74;692;-63
2022/04/09 07:49:32;;;;;;;;;;;23.30;44.90;;;;;;1579590;74;699;-62
2022/04/09 07:51:34;;;;;;;;;;;23.30;45.10;;;;;;1582063;74;768;-64
2022/04/09 07:53:36;;;;;;;;;;;23.20;45.10;;;;;;1581046;74;721;-62
2022/04/09 07:55:37;;;;;;;;;;;23.20;45.20;;;;;;1572666;74;1106;-62
2022/04/09 07:57:39;;;;;;;;;;;23.20;45.30;;;;;;1579656;74;712;-62
2022/04/09 07:59:41;;;;;;;;;;;23.20;45.30;;;;;;1579223;74;747;-64
2022/04/09 08:01:43;;;;;;;;;;;23.20;45.40;;;;;;1579470;74;769;-62
2022/04/09 08:03:45;;;;;;;;;;;23.20;45.40;;;;;;1572934;74;1935;-62
2022/04/09 08:05:47;;;;;;;;;;;23.20;45.50;;;;;;1579111;74;1177;-62
2022/04/09 08:07:49;;;;;;;;;;;23.10;45.60;;;;;;1579236;74;775;-61
2022/04/09 08:09:50;;;;;;;;;;;23.00;45.50;;;;;;1579262;74;809;-61
2022/04/09 08:11:53;;;;;;;;;;;23.00;45.50;;;;;;1573641;74;678;-62
2022/04/09 08:13:55;;;;;;;;;;;23.00;45.50;;;;;;1584137;74;1139;-60
2022/04/09 08:15:57;;;;;;;;;;;23.00;45.60;;;;;;1582679;74;701;-62
2022/04/09 08:17:59;;;;;;;;;;;23.00;45.60;;;;;;1579080;74;858;-62
2022/04/09 08:20:01;;;;;;;;;;;23.10;45.80;;;;;;1580774;74;703;-61
2022/04/09 08:22:03;;;;;;;;;;;23.10;45.80;;;;;;1586701;74;766;-64
2022/04/09 08:24:05;;;;;;;;;;;23.00;45.70;;;;;;1590203;73;1953;-62
2022/04/09 08:26:07;;;;;;;;;;;23.00;45.70;;;;;;1578783;74;751;-62
2022/04/09 08:28:09;;;;;;;;;;;23.00;45.80;;;;;;1587163;74;776;-62
2022/04/09 08:30:11;;;;;;;;;;;23.00;45.80;;;;;;1582599;74;737;-62
2022/04/09 08:32:13;;;;;;;;;;;23.00;45.90;;;;;;1580681;74;725;-62
2022/04/09 08:34:16;;;;;;;;;;;22.90;45.80;;;;;;1577379;74;1224;-62
2022/04/09 08:36:19;;;;;;;;;;;23.00;45.90;;;;;;1598032;73;715;-62
2022/04/09 08:38:21;;;;;;;;;;;23.00;46.00;;;;;;1580500;74;656;-61
2022/04/09 08:40:23;;;;;;;;;;;22.90;45.90;;;;;;1583607;74;782;-63
2022/04/09 08:42:25;;;;;;;;;;;23.00;46.00;;;;;;1574875;74;1929;-61
2022/04/09 08:44:26;;;;;;;;;;;22.90;46.00;;;;;;1584511;74;1157;-62
2022/04/09 08:46:28;;;;;;;;;;;23.00;46.00;;;;;;1543918;75;749;-62
2022/04/09 08:48:31;;;;;;;;;;;23.00;46.00;;;;;;1579441;74;793;-62
2022/04/09 08:50:33;;;;;;;;;;;22.90;46.00;;;;;;1578760;74;789;-62
2022/04/09 08:52:35;;;;;;;;;;;23.00;46.00;;;;;;1579789;74;739;-62
2022/04/09 08:54:37;;;;;;;;;;;22.90;46.00;;;;;;1581963;74;1124;-62
2022/04/09 08:56:39;;;;;;;;;;;22.90;46.00;;;;;;1579036;74;739;-62
2022/04/09 08:58:40;;;;;;;;;;;22.90;46.00;;;;;;1585966;74;713;-63
2022/04/09 09:00:45;;;;;;;;;;;23.00;46.10;;;;;;1582644;74;751;-62
2022/04/09 09:02:56;;;;;;;;;;;22.90;46.00;;;;;;1587303;74;1926;-62
2022/04/09 09:04:58;;;;;;;;;;;23.00;46.10;;;;;;1582333;73;1146;-62
2022/04/09 09:07:18;;;;;;;;;;;22.90;46.10;;;;;;1580390;74;741;-62
2022/04/09 09:09:29;;;;;;;;;;;22.90;46.10;;;;;;1588545;74;797;-62
2022/04/09 09:11:31;;;;;;;;;;;22.90;46.00;;;;;;1579103;74;1826;-61
2022/04/09 09:13:47;;;;;;;;;;;22.90;46.10;;;;;;1551848;75;843;-62
2022/04/09 09:15:53;;;;;;;;;;;22.90;46.10;;;;;;1578315;74;1814;-59
2022/04/09 09:17:58;;;;;;;;;;;22.90;46.10;;;;;;1578743;74;703;-62
2022/04/09 09:20:00;;;;;;;;;;;22.90;46.10;;;;;;1583655;74;698;-63
2022/04/09 09:22:05;;;;;;;;;;;22.90;46.10;;;;;;1578797;74;720;-63
2022/04/09 09:24:09;;;;;;;;;;;22.90;46.10;;;;;;1586779;74;1945;-62
2022/04/09 09:26:13;;;;;;;;;;;22.90;46.10;;;;;;1577067;74;718;-62
2022/04/09 09:28:16;;;;;;;;;;;22.90;46.10;;;;;;1545052;75;1147;-62
2022/04/09 09:30:18;;;;;;;;;;;22.90;46.10;;;;;;1577969;74;1443;-62
2022/04/09 09:32:23;;;;;;;;;;;22.90;46.10;;;;;;1579228;74;713;-64
2022/04/09 09:34:25;;;;;;;;;;;23.00;46.10;;;;;;1582099;74;1127;-63
2022/04/09 09:36:32;;;;;;;;;;;23.00;46.00;;;;;;1579242;74;752;-63
2022/04/09 09:38:34;;;;;;;;;;;23.00;46.10;;;;;;1585456;74;1241;-62
2022/04/09 09:40:36;;;;;;;;;;;23.00;46.10;;;;;;1579413;74;723;-62
2022/04/09 09:42:39;;;;;;;;;;;22.90;46.00;;;;;;1583395;74;800;-62
2022/04/09 09:44:44;;;;;;;;;;;22.90;46.00;;;;;;1578883;74;1162;-62
2022/04/09 09:46:47;;;;;;;;;;;23.00;46.00;;;;;;1578819;74;767;-62
2022/04/09 09:48:50;;;;;;;;;;;23.00;46.10;;;;;;1577470;74;721;-64
2022/04/09 09:50:53;;;;;;;;;;;23.00;46.00;;;;;;1575950;74;757;-62
2022/04/09 09:52:56;;;;;;;;;;;22.90;46.00;;;;;;1580228;74;647;-62
2022/04/09 09:54:59;;;;;;;;;;;23.00;46.00;;;;;;1573350;74;1438;-61
2022/04/09 09:57:01;;;;;;;;;;;22.90;46.00;;;;;;1578354;74;824;-62
2022/04/09 09:59:05;;;;;;;;;;;22.90;46.00;;;;;;1585765;74;754;-62
2022/04/09 10:01:07;;;;;;;;;;;22.90;45.90;;;;;;1578936;74;811;-63
2022/04/09 10:03:09;;;;;;;;;;;23.00;45.90;;;;;;1578282;74;1910;-58
2022/04/09 10:05:13;;;;;;;;;;;22.90;45.90;;;;;;1582244;74;1174;-62
2022/04/09 10:07:15;;;;;;;;;;;23.00;45.90;;;;;;1582861;74;1062;-62
2022/04/09 10:09:19;;;;;;;;;;;22.90;45.90;;;;;;1577818;74;769;-62
2022/04/09 10:11:21;;;;;;;;;;;23.00;46.00;;;;;;1545258;75;711;-62
2022/04/09 10:13:27;;;;;;;;;;;23.00;46.00;;;;;;1577708;74;710;-64
2022/04/09 10:15:26;;;;;;;;;;;22.90;46.00;;;;;;1578099;74;1137;-62
2022/04/09 10:17:28;;;;;;;;;;;23.00;45.90;;;;;;1583306;74;796;-62
2022/04/09 10:19:30;;;;;;;;;;;23.00;45.90;;;;;;1581773;74;788;-61
2022/04/09 10:21:33;;;;;;;;;;;23.00;45.90;;;;;;1577154;74;788;-62
2022/04/09 10:23:35;;;;;;;;;;;22.90;45.80;;;;;;1585555;74;1930;-63
2022/04/09 10:25:40;;;;;;;;;;;23.00;45.80;;;;;;1581270;73;1138;-61
2022/04/09 10:27:43;;;;;;;;;;;22.90;45.80;;;;;;1581505;74;1640;-61
2022/04/09 10:29:49;;;;;;;;;;;23.00;45.80;;;;;;1576046;74;1074;-62
2022/04/09 10:31:54;;;;;;;;;;;22.90;45.80;;;;;;1585196;74;700;-61
2022/04/09 10:33:57;;;;;;;;;;;22.90;45.70;;;;;;1585146;74;1409;-62
2022/04/09 10:36:04;;;;;;;;;;;23.00;45.70;;;;;;1578965;74;746;-62
2022/04/09 10:38:10;;;;;;;;;;;23.00;45.80;;;;;;1581600;74;1654;-62
2022/04/09 10:40:11;;;;;;;;;;;23.00;45.70;;;;;;1576496;74;714;-61
2022/04/09 10:42:31;;;;;;;;;;;22.90;45.70;;;;;;1579160;74;790;-63
2022/04/09 10:44:35;;;;;;;;;;;23.00;45.70;;;;;;1582838;74;1924;-59
2022/04/09 10:46:37;;;;;;;;;;;23.00;45.70;;;;;;1578240;74;795;-61
2022/04/09 10:48:42;;;;;;;;;;;23.00;45.70;;;;;;1582593;74;768;-63
2022/04/09 10:50:55;;;;;;;;;;;22.90;45.80;;;;;;1578823;74;697;-63
2022/04/09 10:52:57;;;;;;;;;;;22.90;45.80;;;;;;1580762;74;1786;-63
2022/04/09 10:55:09;;;;;;;;;;;22.90;45.70;;;;;;1543530;75;1560;-62
2022/04/09 10:57:13;;;;;;;;;;;23.00;45.70;;;;;;1574975;74;718;-66
2022/04/09 10:59:17;;;;;;;;;;;23.00;45.80;;;;;;1576535;74;1043;-63
2022/04/09 11:01:37;;;;;;;;;;;22.90;45.70;;;;;;1578773;74;757;-62
2022/04/09 11:03:39;;;;;;;;;;;23.00;45.70;;;;;;1577209;74;1941;-63
2022/04/09 11:05:43;;;;;;;;;;;23.00;45.70;;;;;;1578385;74;1113;-61
2022/04/09 11:08:02;;;;;;;;;;;23.00;45.70;;;;;;1592024;74;1680;-63
2022/04/09 11:10:04;;;;;;;;;;;23.00;45.70;;;;;;1579464;74;796;-62
2022/04/09 11:12:06;;;;;;;;;;;23.00;45.70;;;;;;1578974;74;724;-62
2022/04/09 11:14:08;;;;;;;;;;;23.00;45.60;;;;;;1578954;74;1134;-62
2022/04/09 11:16:10;;;;;;;;;;;23.00;45.60;;;;;;1578843;74;562;-63
2022/04/09 11:18:12;;;;;;;;;;;23.10;45.70;;;;;;1583239;74;791;-64
2022/04/09 11:20:15;;;;;;;;;;;23.10;45.50;;;;;;1579296;74;776;-66
2022/04/09 11:22:17;;;;;;;;;;;23.00;45.50;;;;;;1581721;74;822;-64
2022/04/09 11:24:19;;;;;;;;;;;23.00;45.50;;;;;;1594365;74;1953;-64
2022/04/09 11:26:23;;;;;;;;;;;23.00;45.50;;;;;;1581445;74;941;-65
2022/04/09 11:28:25;;;;;;;;;;;23.00;45.50;;;;;;1583375;74;717;-66
2022/04/09 11:30:26;;;;;;;;;;;23.00;45.50;;;;;;1584192;74;788;-63
2022/04/09 11:32:28;;;;;;;;;;;23.00;45.50;;;;;;1592209;74;794;-65
2022/04/09 11:34:47;;;;;;;;;;;23.00;45.50;;;;;;1590337;74;1087;-63
2022/04/09 11:36:51;;;;;;;;;;;23.10;45.20;;;;;;1598781;74;1774;-67
2022/04/09 11:38:53;;;;;;;;;;;23.20;45.00;;;;;;1578898;74;1684;-64
2022/04/09 11:40:55;;;;;;;;;;;23.30;44.70;;;;;;1578996;74;599;-64
2022/04/09 11:42:57;;;;;;;;;;;23.30;44.70;;;;;;1574953;74;738;-64
2022/04/09 11:45:01;;;;;;;;;;;23.40;44.50;;;;;;1579218;74;1917;-63
2022/04/09 11:47:04;;;;;;;;;;;23.40;44.70;;;;;;1579466;74;766;-63
2022/04/09 11:49:07;;;;;;;;;;;23.50;44.60;;;;;;1577101;74;1135;-64
2022/04/09 11:51:10;;;;;;;;;;;23.50;44.50;;;;;;1582657;74;808;-64
2022/04/09 11:53:14;;;;;;;;;;;23.50;44.50;;;;;;1573585;74;1292;-67
2022/04/09 11:55:16;;;;;;;;;;;23.50;44.40;;;;;;1573081;74;1182;-64
2022/04/09 11:57:18;;;;;;;;;;;23.50;44.40;;;;;;1588944;74;799;-64
2022/04/09 11:59:20;;;;;;;;;;;23.50;44.50;;;;;;1587241;74;797;-64
2022/04/09 12:01:22;;;;;;;;;;;23.50;44.50;;;;;;1580362;74;767;-63
2022/04/09 12:03:24;;;;;;;;;;;23.40;44.60;;;;;;1580571;74;763;-66
2022/04/09 12:05:26;;;;;;;;;;;23.30;44.80;;;;;;1579865;74;1917;-63
2022/04/09 12:07:28;;;;;;;;;;;23.30;45.10;;;;;;1588185;74;936;-61
2022/04/09 12:09:30;;;;;;;;;;;23.20;45.10;;;;;;1580441;74;718;-64
2022/04/09 12:11:32;;;;;;;;;;;23.20;45.10;;;;;;1594645;74;757;-63
2022/04/09 12:13:34;;;;;;;;;;;23.20;45.20;;;;;;1577696;74;783;-64